Time;durP1;ratioP1;P1;durP2;ratioP2;P2;SDS_P1;SDS_P2;PMS_P1;PMS_P2;Temp;Humidity;BMP_temperature;BMP_pressure;BME280_temperature;BME280_humidity;BME280_pressure;Samples;Min_cycle;Max_cycle;Signal;HPM_P1;HPM_P2
2022/04/14 00:01:01;;;;;;;11.60;9.60;;;14.30;99.90;;;;;;5077184;28;20559;-82
2022/04/14 00:03:28;;;;;;;11.80;9.57;;;14.30;99.90;;;;;;5076912;28;20454;-82
2022/04/14 00:05:54;;;;;;;15.23;9.83;;;14.30;99.90;;;;;;5075035;28;20548;-83
2022/04/14 00:08:21;;;;;;;14.80;9.70;;;14.20;99.90;;;;;;5077641;28;20489;-81
2022/04/14 00:10:48;;;;;;;12.23;10.40;;;14.20;99.90;;;;;;5076842;28;20480;-81
2022/04/14 00:13:16;;;;;;;14.67;11.23;;;14.20;99.90;;;;;;5077724;28;20537;-83
2022/04/14 00:15:43;;;;;;;14.23;11.87;;;14.20;99.90;;;;;;5061763;28;20465;-81
2022/04/14 00:18:11;;;;;;;18.90;12.37;;;14.20;99.90;;;;;;5057573;28;20490;-83
2022/04/14 00:20:38;;;;;;;15.90;11.30;;;14.10;99.90;;;;;;5070965;28;20478;-82
2022/04/14 00:23:05;;;;;;;15.77;13.03;;;14.10;99.90;;;;;;5078233;28;20492;-82
2022/04/14 00:25:31;;;;;;;21.60;13.53;;;14.10;99.90;;;;;;5079215;28;20455;-81
2022/04/14 00:27:58;;;;;;;19.47;13.07;;;14.10;99.90;;;;;;5077751;28;20485;-82
2022/04/14 00:30:25;;;;;;;16.63;12.97;;;14.10;99.90;;;;;;5077158;28;20481;-81
2022/04/14 00:32:52;;;;;;;14.33;12.90;;;14.10;99.90;;;;;;5076503;28;20463;-81
2022/04/14 00:35:20;;;;;;;16.77;10.93;;;14.10;99.90;;;;;;5066119;28;20447;-82
2022/04/14 00:37:47;;;;;;;15.93;10.40;;;14.10;99.90;;;;;;5056863;28;20449;-81
2022/04/14 00:40:14;;;;;;;18.53;12.43;;;14.10;99.90;;;;;;5056145;28;20475;-82
2022/04/14 00:42:41;;;;;;;12.63;10.50;;;14.10;99.90;;;;;;5062878;28;20472;-81
2022/04/14 00:45:09;;;;;;;11.70;9.70;;;14.00;99.90;;;;;;5066261;28;20452;-82
2022/04/14 00:47:36;;;;;;;13.27;9.37;;;14.00;99.90;;;;;;5072599;28;20480;-82
2022/04/14 00:50:06;;;;;;;14.33;8.37;;;14.00;99.90;;;;;;5076957;28;20472;-82
2022/04/14 00:52:34;;;;;;;10.33;8.47;;;14.00;99.90;;;;;;5074762;28;20455;-80
2022/04/14 00:55:00;;;;;;;8.93;8.00;;;13.90;99.90;;;;;;5075858;28;20888;-81
2022/04/14 00:57:27;;;;;;;10.63;8.10;;;13.90;99.90;;;;;;5076249;28;20462;-82
2022/04/14 00:59:54;;;;;;;11.03;7.70;;;13.90;99.90;;;;;;5077247;28;20480;-81
2022/04/14 01:02:21;;;;;;;9.97;7.50;;;13.90;99.90;;;;;;5075912;28;20452;-81
2022/04/14 01:04:49;;;;;;;8.90;7.60;;;13.90;99.90;;;;;;5074660;28;20955;-82
2022/04/14 01:07:16;;;;;;;14.00;7.97;;;13.90;99.90;;;;;;5075395;28;20477;-81
2022/04/14 01:09:46;;;;;;;8.80;7.30;;;13.90;99.90;;;;;;5075834;28;20830;-81
2022/04/14 01:12:15;;;;;;;8.17;6.93;;;13.80;99.90;;;;;;5075518;28;20454;-81
2022/04/14 01:14:42;;;;;;;8.60;7.70;;;13.90;99.90;;;;;;5074584;28;20544;-81
2022/04/14 01:17:11;;;;;;;8.70;6.90;;;13.90;99.90;;;;;;5072105;28;21050;-80
2022/04/14 01:19:39;;;;;;;8.77;6.47;;;13.80;99.90;;;;;;5074671;28;20486;-80
2022/04/14 01:22:08;;;;;;;8.47;6.10;;;13.60;99.90;;;;;;5075893;28;20455;-81
2022/04/14 01:24:37;;;;;;;10.07;6.63;;;13.70;99.90;;;;;;5071369;28;20444;-81
2022/04/14 01:27:04;;;;;;;10.90;7.50;;;13.70;99.90;;;;;;5067997;28;20896;-81
2022/04/14 01:29:31;;;;;;;9.40;7.13;;;13.70;99.90;;;;;;5079174;28;20474;-82
2022/04/14 01:32:00;;;;;;;6.83;5.90;;;13.70;99.90;;;;;;5078874;28;20462;-81
2022/04/14 01:34:29;;;;;;;8.50;6.87;;;13.70;99.90;;;;;;5077472;28;20495;-82
2022/04/14 01:36:56;;;;;;;9.50;6.17;;;13.60;99.90;;;;;;5078562;28;20461;-81
2022/04/14 01:39:23;;;;;;;8.53;7.07;;;13.60;99.90;;;;;;5079004;28;20501;-82
2022/04/14 01:41:51;;;;;;;12.50;6.60;;;13.60;99.90;;;;;;5079134;28;20458;-81
2022/04/14 01:44:18;;;;;;;11.10;7.20;;;13.60;99.90;;;;;;5077380;28;20444;-81
2022/04/14 01:46:45;;;;;;;9.67;8.30;;;13.60;99.90;;;;;;5063655;28;20900;-81
2022/04/14 01:49:12;;;;;;;10.20;7.83;;;13.60;99.90;;;;;;5078163;28;20445;-82
2022/04/14 01:51:40;;;;;;;10.40;6.83;;;13.60;99.90;;;;;;5079550;28;20478;-82
2022/04/14 01:54:07;;;;;;;11.10;6.90;;;13.60;99.90;;;;;;5095537;22;20497;-84
2022/04/14 01:56:34;;;;;;;11.43;8.20;;;13.60;99.90;;;;;;5067065;28;20526;-84
2022/04/14 01:59:02;;;;;;;10.67;7.77;;;13.60;99.90;;;;;;5064717;28;20496;-83
2022/04/14 02:01:29;;;;;;;8.90;7.33;;;13.70;99.90;;;;;;5063937;28;20525;-84
2022/04/14 02:03:57;;;;;;;10.37;8.23;;;13.70;99.90;;;;;;5073640;28;20451;-83
2022/04/14 02:06:23;;;;;;;8.57;6.80;;;13.70;99.90;;;;;;5072256;28;20449;-84
2022/04/14 02:08:50;;;;;;;8.63;7.70;;;13.60;99.90;;;;;;5066916;28;20454;-83
2022/04/14 02:11:17;;;;;;;10.27;6.90;;;13.70;99.90;;;;;;5084424;28;20453;-83
2022/04/14 02:13:44;;;;;;;10.70;7.37;;;13.60;99.90;;;;;;5081754;28;20478;-83
2022/04/14 02:16:12;;;;;;;10.77;7.00;;;13.60;99.90;;;;;;5082026;28;20464;-84
2022/04/14 02:18:39;;;;;;;7.73;6.43;;;13.60;99.90;;;;;;5085685;28;20485;-83
2022/04/14 02:21:06;;;;;;;10.60;6.70;;;13.60;99.90;;;;;;5083456;28;20482;-84
2022/04/14 02:23:32;;;;;;;9.33;7.17;;;13.60;99.90;;;;;;5091687;28;20489;-83
2022/04/14 02:25:59;;;;;;;9.83;6.77;;;13.60;99.90;;;;;;5091206;28;20454;-82
2022/04/14 02:28:26;;;;;;;10.07;8.13;;;13.60;99.90;;;;;;5095761;28;20449;-83
2022/04/14 02:30:53;;;;;;;7.87;7.03;;;13.60;99.90;;;;;;5096307;28;20459;-82
2022/04/14 02:33:21;;;;;;;9.10;7.40;;;13.60;99.90;;;;;;5093598;28;20539;-81
2022/04/14 02:35:48;;;;;;;12.07;8.17;;;13.60;99.90;;;;;;5088145;28;20465;-81
2022/04/14 02:38:15;;;;;;;10.53;7.60;;;13.70;99.90;;;;;;5095723;28;20480;-82
2022/04/14 02:40:41;;;;;;;11.00;8.67;;;13.60;99.90;;;;;;5097321;28;20451;-83
2022/04/14 02:43:08;;;;;;;10.83;8.83;;;13.60;99.90;;;;;;5095061;28;20465;-80
2022/04/14 02:45:35;;;;;;;9.43;8.43;;;13.60;99.90;;;;;;5096543;28;20481;-82
2022/04/14 02:48:02;;;;;;;10.20;8.83;;;13.60;99.90;;;;;;5084460;28;20440;-82
2022/04/14 02:50:30;;;;;;;13.67;10.60;;;13.70;99.90;;;;;;5096914;28;20525;-81
2022/04/14 02:52:57;;;;;;;11.27;9.77;;;13.60;99.90;;;;;;5079603;28;20499;-82
2022/04/14 02:55:23;;;;;;;13.77;10.47;;;13.60;99.90;;;;;;5070818;28;20959;-84
2022/04/14 02:57:51;;;;;;;13.60;10.70;;;13.60;99.90;;;;;;5081633;28;21039;-84
2022/04/14 03:00:18;;;;;;;12.70;10.37;;;13.60;99.90;;;;;;5082341;28;20474;-83
2022/04/14 03:02:45;;;;;;;13.90;11.40;;;13.60;99.90;;;;;;5074718;28;20536;-83
2022/04/14 03:05:12;;;;;;;11.97;10.30;;;13.60;99.90;;;;;;5081695;28;20458;-83
2022/04/14 03:07:40;;;;;;;12.30;9.33;;;13.50;99.90;;;;;;5082198;28;20958;-82
2022/04/14 03:10:08;;;;;;;14.23;11.10;;;13.60;99.90;;;;;;5082542;28;20454;-84
2022/04/14 03:12:46;;;;;;;13.70;10.73;;;13.50;99.90;;;;;;5070373;28;20476;-84
2022/04/14 03:15:13;;;;;;;14.80;12.43;;;13.50;99.90;;;;;;5075973;28;20475;-83
2022/04/14 03:17:40;;;;;;;13.53;11.90;;;13.50;99.90;;;;;;5074022;28;20470;-83
2022/04/14 03:20:08;;;;;;;16.47;12.27;;;13.50;99.90;;;;;;5063247;28;20492;-84
2022/04/14 03:22:36;;;;;;;16.33;12.30;;;13.50;99.90;;;;;;5062775;28;20551;-85
2022/04/14 03:25:05;;;;;;;17.57;11.70;;;13.50;99.90;;;;;;5079486;28;20461;-85
2022/04/14 03:27:32;;;;;;;17.97;12.80;;;13.50;99.90;;;;;;5082260;28;20835;-83
2022/04/14 03:29:59;;;;;;;15.70;11.90;;;13.40;99.90;;;;;;5082773;28;20454;-85
2022/04/14 03:32:26;;;;;;;21.10;13.43;;;13.40;99.90;;;;;;5063147;28;20592;-83
2022/04/14 03:34:53;;;;;;;15.37;12.03;;;13.40;99.90;;;;;;5065023;28;20463;-84
2022/04/14 03:37:21;;;;;;;21.73;14.47;;;13.40;99.90;;;;;;5062503;28;20840;-84
2022/04/14 03:39:48;;;;;;;17.67;13.30;;;13.40;99.90;;;;;;5065396;28;20515;-85
2022/04/14 03:42:16;;;;;;;16.87;13.77;;;13.40;99.90;;;;;;5082620;28;20448;-84
2022/04/14 03:44:43;;;;;;;17.40;14.43;;;13.40;99.90;;;;;;5068776;28;20458;-83
2022/04/14 03:47:09;;;;;;;17.40;14.20;;;13.40;99.90;;;;;;5063168;28;20549;-84
2022/04/14 03:49:36;;;;;;;17.57;14.00;;;13.40;99.90;;;;;;5061067;28;20477;-83
2022/04/14 03:52:03;;;;;;;19.60;14.53;;;13.40;99.90;;;;;;5062191;28;20441;-83
2022/04/14 03:54:30;;;;;;;19.53;13.63;;;13.40;99.90;;;;;;5072873;28;20482;-84
2022/04/14 03:56:57;;;;;;;16.70;14.90;;;13.40;99.90;;;;;;5074739;28;20562;-83
2022/04/14 03:59:25;;;;;;;15.33;13.70;;;13.40;99.90;;;;;;5074276;28;20482;-84
2022/04/14 04:01:52;;;;;;;18.67;15.00;;;13.40;99.90;;;;;;5083925;28;20547;-83
2022/04/14 04:04:19;;;;;;;15.37;13.77;;;13.30;99.90;;;;;;5083433;28;20852;-82
2022/04/14 04:06:46;;;;;;;17.30;13.53;;;13.40;99.90;;;;;;5087581;28;20443;-84
2022/04/14 04:09:13;;;;;;;20.27;14.77;;;13.30;99.90;;;;;;5090154;28;20463;-82
2022/04/14 04:11:40;;;;;;;20.03;14.73;;;13.40;99.90;;;;;;5085026;28;20460;-83
2022/04/14 04:14:07;;;;;;;21.83;17.07;;;13.30;99.90;;;;;;5098872;28;20513;-83
2022/04/14 04:16:35;;;;;;;16.70;14.03;;;13.30;99.90;;;;;;5089427;28;20480;-83
2022/04/14 04:19:02;;;;;;;20.47;15.37;;;13.30;99.90;;;;;;5079921;28;20488;-82
2022/04/14 04:21:30;;;;;;;23.67;16.27;;;13.30;99.90;;;;;;5069063;28;20826;-83
2022/04/14 04:23:57;;;;;;;18.73;14.27;;;13.20;99.90;;;;;;5076285;28;20482;-82
2022/04/14 04:26:24;;;;;;;23.47;16.97;;;13.20;99.90;;;;;;5075601;28;20950;-83
2022/04/14 04:28:51;;;;;;;22.23;15.50;;;13.20;99.90;;;;;;5071972;28;20466;-82
2022/04/14 04:31:18;;;;;;;21.13;17.47;;;13.20;99.90;;;;;;5068232;28;20453;-83
2022/04/14 04:33:47;;;;;;;18.17;15.70;;;13.20;99.90;;;;;;5073335;28;20982;-82
2022/04/14 04:36:14;;;;;;;24.90;18.10;;;13.20;99.90;;;;;;5077928;28;20498;-81
2022/04/14 04:38:41;;;;;;;18.13;16.07;;;13.20;99.90;;;;;;5087289;28;20448;-83
2022/04/14 04:41:08;;;;;;;21.53;14.77;;;13.10;99.90;;;;;;5070418;28;20480;-81
2022/04/14 04:43:35;;;;;;;23.47;16.90;;;13.10;99.90;;;;;;5079325;28;20476;-83
2022/04/14 04:46:02;;;;;;;19.77;15.23;;;13.10;99.90;;;;;;5064912;28;20542;-81
2022/04/14 04:50:44;;;;;;;16.60;14.20;;;13.80;99.90;;;;;;5093483;28;20549;-80
2022/04/14 04:53:11;;;;;;;20.60;14.97;;;13.10;99.90;;;;;;5091119;28;20465;-79
2022/04/14 04:55:38;;;;;;;22.63;17.40;;;13.10;99.90;;;;;;5092251;28;20462;-79
2022/04/14 04:58:04;;;;;;;22.87;16.27;;;13.10;99.90;;;;;;5092525;28;20447;-79
2022/04/14 05:00:31;;;;;;;21.30;14.53;;;13.10;99.90;;;;;;5085374;28;20960;-79
2022/04/14 05:02:58;;;;;;;23.53;18.03;;;13.10;99.90;;;;;;5092086;28;20494;-80
2022/04/14 05:05:25;;;;;;;23.00;17.03;;;13.10;99.90;;;;;;5088084;28;20449;-80
2022/04/14 05:07:53;;;;;;;23.33;17.93;;;13.10;99.90;;;;;;5088832;28;20992;-79
2022/04/14 05:10:20;;;;;;;26.10;16.77;;;13.20;99.90;;;;;;5093717;28;20980;-79
2022/04/14 05:12:47;;;;;;;23.97;18.27;;;13.20;99.90;;;;;;5093858;28;20483;-80
2022/04/14 05:15:13;;;;;;;25.60;19.40;;;13.30;99.90;;;;;;5073427;28;20468;-80
2022/04/14 05:17:40;;;;;;;22.13;18.07;;;13.30;99.90;;;;;;5074384;28;20451;-80
2022/04/14 05:20:08;;;;;;;23.33;18.93;;;13.40;99.90;;;;;;5073662;28;20458;-80
2022/04/14 05:22:35;;;;;;;24.60;19.60;;;13.40;99.90;;;;;;5073907;28;20487;-80
2022/04/14 05:25:03;;;;;;;22.00;16.90;;;13.40;99.90;;;;;;5093642;28;20461;-80
2022/04/14 05:27:30;;;;;;;25.43;20.53;;;13.40;99.90;;;;;;5114160;28;20457;-80
2022/04/14 05:29:56;;;;;;;22.60;17.60;;;13.40;99.90;;;;;;5113636;28;21031;-80
2022/04/14 05:32:23;;;;;;;25.87;20.53;;;13.50;99.90;;;;;;5113886;28;20532;-80
2022/04/14 05:34:50;;;;;;;24.07;19.70;;;13.50;99.90;;;;;;5099494;28;20460;-80
2022/04/14 05:37:17;;;;;;;27.80;21.73;;;13.50;99.90;;;;;;5094092;28;20453;-79
2022/04/14 05:39:44;;;;;;;26.37;18.80;;;13.50;99.90;;;;;;5093178;28;20495;-80
2022/04/14 05:42:12;;;;;;;23.40;20.00;;;13.50;99.90;;;;;;5085816;28;20461;-80
2022/04/14 05:44:39;;;;;;;28.13;22.00;;;13.50;99.90;;;;;;5076493;28;20543;-83
2022/04/14 05:47:06;;;;;;;22.60;18.10;;;13.50;99.90;;;;;;5090172;28;20484;-82
2022/04/14 05:49:33;;;;;;;22.27;17.13;;;13.50;99.90;;;;;;5093864;28;20486;-84
2022/04/14 05:52:00;;;;;;;22.43;19.47;;;13.60;99.90;;;;;;5102300;28;20900;-83
2022/04/14 05:54:27;;;;;;;25.20;20.20;;;13.60;99.90;;;;;;5086841;28;20481;-84
2022/04/14 05:56:53;;;;;;;22.63;18.80;;;13.60;99.90;;;;;;5095733;28;20451;-83
2022/04/14 05:59:22;;;;;;;25.00;19.03;;;13.60;99.90;;;;;;5086689;28;20818;-83
2022/04/14 06:01:49;;;;;;;25.60;19.83;;;13.70;99.90;;;;;;5071456;28;20498;-84
2022/04/14 06:04:16;;;;;;;24.63;19.43;;;13.70;99.90;;;;;;5075786;28;20482;-83
2022/04/14 06:06:42;;;;;;;21.73;17.40;;;13.80;99.90;;;;;;5074416;28;20459;-83
2022/04/14 06:09:10;;;;;;;26.97;20.10;;;13.80;99.90;;;;;;5080555;28;20478;-83
2022/04/14 06:11:37;;;;;;;22.50;18.00;;;13.90;99.90;;;;;;5060974;28;20484;-84
2022/04/14 06:14:04;;;;;;;23.40;19.20;;;13.90;99.90;;;;;;5064479;28;20482;-84
2022/04/14 06:16:32;;;;;;;25.67;19.17;;;14.00;99.90;;;;;;5080983;28;21029;-84
2022/04/14 06:18:59;;;;;;;24.97;19.23;;;14.10;99.90;;;;;;5081396;28;20452;-83
2022/04/14 06:21:26;;;;;;;27.20;20.70;;;14.10;99.90;;;;;;5079239;28;20450;-85
2022/04/14 06:23:52;;;;;;;29.83;19.13;;;14.20;99.90;;;;;;5076741;28;20561;-84
2022/04/14 06:26:19;;;;;;;28.70;19.70;;;14.20;99.90;;;;;;5076492;28;20451;-82
2022/04/14 06:28:47;;;;;;;23.00;19.80;;;14.20;99.90;;;;;;5091764;28;20478;-83
2022/04/14 06:31:13;;;;;;;28.50;21.27;;;14.30;99.90;;;;;;5085066;28;20461;-83
2022/04/14 06:33:44;;;;;;;28.90;19.87;;;14.30;99.90;;;;;;5096914;28;20522;-83
2022/04/14 06:36:11;;;;;;;29.00;21.93;;;14.40;99.90;;;;;;5099595;28;20442;-83
2022/04/14 06:38:39;;;;;;;30.93;22.70;;;14.50;99.90;;;;;;5094821;28;20452;-83
2022/04/14 06:41:06;;;;;;;36.97;23.17;;;14.50;99.90;;;;;;5089378;28;20457;-83
2022/04/14 06:43:33;;;;;;;27.43;22.00;;;14.60;99.90;;;;;;5095934;28;20507;-85
2022/04/14 06:46:03;;;;;;;31.53;23.07;;;14.70;99.90;;;;;;5106922;28;20457;-83
2022/04/14 06:48:30;;;;;;;32.47;22.83;;;14.80;99.90;;;;;;5084957;28;20469;-83
2022/04/14 06:50:58;;;;;;;29.57;21.63;;;14.80;99.90;;;;;;5093536;28;20527;-84
2022/04/14 06:53:25;;;;;;;27.90;21.20;;;15.00;99.90;;;;;;5092768;28;20490;-83
2022/04/14 06:55:53;;;;;;;30.20;22.23;;;15.10;99.90;;;;;;5091339;28;20449;-84
2022/04/14 06:58:20;;;;;;;27.97;21.53;;;15.30;99.90;;;;;;5092005;28;20466;-84
2022/04/14 07:00:47;;;;;;;29.83;22.50;;;15.50;99.90;;;;;;5097372;28;20447;-83
2022/04/14 07:03:14;;;;;;;28.50;21.97;;;15.60;99.90;;;;;;5089133;28;20466;-84
2022/04/14 07:05:40;;;;;;;32.60;22.80;;;15.80;99.90;;;;;;5084490;28;20447;-83
2022/04/14 07:08:09;;;;;;;30.00;21.50;;;15.90;99.90;;;;;;5093266;28;20455;-84
2022/04/14 07:10:36;;;;;;;32.27;25.10;;;16.00;99.90;;;;;;5094865;28;20464;-83
2022/04/14 07:13:03;;;;;;;33.30;25.70;;;16.10;99.90;;;;;;5079889;28;20467;-82
2022/04/14 07:15:30;;;;;;;30.50;24.70;;;15.60;99.90;;;;;;5083682;28;20943;-84
2022/04/14 07:17:57;;;;;;;36.23;26.10;;;15.60;99.90;;;;;;5085274;28;20489;-82
2022/04/14 07:20:29;;;;;;;30.77;22.97;;;15.50;99.90;;;;;;5066279;28;20460;-84
2022/04/14 07:22:58;;;;;;;37.17;25.33;;;15.60;99.90;;;;;;5062698;28;20484;-84
2022/04/14 07:25:28;;;;;;;37.87;27.43;;;15.50;99.90;;;;;;5066283;28;20461;-84
2022/04/14 07:27:55;;;;;;;36.43;25.80;;;15.60;99.90;;;;;;5065112;28;20483;-83
2022/04/14 07:30:23;;;;;;;39.20;26.00;;;15.50;99.90;;;;;;5070914;28;20918;-83
2022/04/14 07:32:50;;;;;;;37.03;24.93;;;15.60;99.90;;;;;;5080467;28;20486;-83
2022/04/14 07:35:18;;;;;;;37.13;25.30;;;15.60;99.90;;;;;;5066932;28;20456;-83
2022/04/14 07:37:45;;;;;;;40.97;26.90;;;15.50;99.90;;;;;;5071400;28;20456;-83
2022/04/14 07:40:12;;;;;;;38.13;26.33;;;15.50;99.90;;;;;;5075451;28;20887;-83
2022/04/14 07:42:42;;;;;;;41.70;28.70;;;15.60;99.90;;;;;;5067705;28;20495;-82
2022/04/14 07:45:10;;;;;;;43.67;29.90;;;15.50;99.90;;;;;;5082956;28;20449;-82
2022/04/14 07:47:37;;;;;;;36.50;26.77;;;15.50;99.90;;;;;;5090539;28;20476;-83
2022/04/14 07:50:05;;;;;;;40.50;28.33;;;15.50;99.90;;;;;;5073769;28;20476;-82
2022/04/14 07:52:43;;;;;;;37.57;27.73;;;15.40;99.90;;;;;;5067763;28;20455;-82
2022/04/14 07:55:09;;;;;;;41.47;29.10;;;15.30;99.90;;;;;;5074340;28;20451;-82
2022/04/14 07:57:36;;;;;;;42.67;28.37;;;15.30;99.90;;;;;;5074751;28;20461;-82
2022/04/14 08:00:05;;;;;;;41.77;27.40;;;15.40;99.90;;;;;;5084363;28;20451;-83
2022/04/14 08:02:32;;;;;;;39.53;27.90;;;15.50;99.90;;;;;;5072826;28;20969;-81
2022/04/14 08:04:59;;;;;;;40.00;26.20;;;16.00;99.90;;;;;;5087356;28;20537;-83
2022/04/14 08:07:26;;;;;;;37.53;26.20;;;16.90;99.90;;;;;;5094510;28;20466;-82
2022/04/14 08:09:52;;;;;;;39.83;26.50;;;17.70;99.90;;;;;;5065107;28;20493;-81
2022/04/14 08:12:19;;;;;;;33.83;23.30;;;18.70;99.90;;;;;;5073020;28;20466;-82
2022/04/14 08:14:46;;;;;;;33.63;25.47;;;19.60;99.90;;;;;;5069186;28;20479;-81
2022/04/14 08:17:14;;;;;;;34.53;25.30;;;20.20;99.90;;;;;;5075339;28;20481;-81
2022/04/14 08:19:41;;;;;;;39.47;27.03;;;20.80;99.90;;;;;;5071546;28;20466;-81
2022/04/14 08:22:08;;;;;;;37.83;29.13;;;20.90;99.90;;;;;;5063922;28;20462;-80
2022/04/14 08:24:36;;;;;;;34.43;26.93;;;21.20;99.90;;;;;;5070159;28;20483;-83
2022/04/14 08:27:03;;;;;;;33.90;26.50;;;21.70;99.90;;;;;;5061012;28;20463;-81
2022/04/14 08:29:29;;;;;;;28.00;24.50;;;22.40;99.90;;;;;;5070539;28;20462;-83
2022/04/14 08:31:56;;;;;;;34.77;27.70;;;23.80;99.90;;;;;;5078430;28;20463;-82
2022/04/14 08:34:25;;;;;;;34.33;26.40;;;24.50;99.90;;;;;;5075582;28;20496;-83
2022/04/14 08:36:52;;;;;;;33.47;27.83;;;24.60;99.90;;;;;;5060457;28;20459;-82
2022/04/14 08:39:19;;;;;;;27.93;24.40;;;24.60;99.90;;;;;;5066737;28;20456;-83
2022/04/14 08:41:51;;;;;;;40.57;31.77;;;25.50;99.90;;;;;;5071272;28;20447;-83
2022/04/14 08:44:22;;;;;;;36.47;28.73;;;24.00;99.90;;;;;;5074018;28;20494;-82
2022/04/14 08:46:51;;;;;;;34.30;28.60;;;23.10;99.90;;;;;;5076074;28;20451;-83
2022/04/14 08:49:18;;;;;;;34.03;27.80;;;22.30;99.90;;;;;;5067791;28;20463;-82
2022/04/14 08:51:48;;;;;;;28.93;21.90;;;22.20;99.90;;;;;;5065060;28;20510;-83
2022/04/14 08:54:18;;;;;;;31.23;24.50;;;23.60;99.90;;;;;;5076301;28;20471;-81
2022/04/14 08:56:46;;;;;;;32.10;26.53;;;24.70;99.90;;;;;;5077990;28;20980;-82
2022/04/14 08:59:16;;;;;;;25.73;21.17;;;25.80;99.90;;;;;;5077322;28;20457;-81
2022/04/14 09:01:43;;;;;;;27.00;23.60;;;27.50;99.90;;;;;;5066202;28;20451;-83
2022/04/14 09:04:10;;;;;;;26.97;23.90;;;28.80;94.90;;;;;;5065331;28;20470;-81
2022/04/14 09:06:37;;;;;;;25.03;20.80;;;27.30;87.50;;;;;;5059911;28;20484;-84
2022/04/14 09:09:05;;;;;;;26.93;23.47;;;26.30;91.30;;;;;;5077570;28;20824;-81
2022/04/14 09:11:32;;;;;;;23.73;20.40;;;26.30;92.20;;;;;;5077059;28;20577;-82
2022/04/14 09:14:00;;;;;;;21.53;18.93;;;26.20;93.60;;;;;;5062313;28;20470;-80
2022/04/14 09:16:32;;;;;;;21.93;17.43;;;26.10;92.40;;;;;;5065378;28;20465;-80
2022/04/14 09:19:01;;;;;;;22.67;18.60;;;26.70;94.00;;;;;;5060859;28;20443;-81
2022/04/14 09:21:32;;;;;;;19.77;17.67;;;26.90;87.50;;;;;;5064673;28;20450;-80
2022/04/14 09:23:59;;;;;;;21.13;18.47;;;27.70;89.60;;;;;;5065044;28;20845;-81
2022/04/14 09:26:28;;;;;;;18.70;16.27;;;28.60;88.50;;;;;;5068120;28;20453;-80
2022/04/14 09:29:06;;;;;;;20.80;18.30;;;30.00;77.30;;;;;;5075596;28;20447;-81
2022/04/14 09:31:47;;;;;;;20.83;17.73;;;29.50;72.70;;;;;;5074454;28;20911;-81
2022/04/14 09:34:15;;;;;;;17.43;15.73;;;30.00;72.40;;;;;;5076296;28;20524;-81
2022/04/14 09:36:42;;;;;;;21.93;19.80;;;31.50;71.50;;;;;;5079479;28;20476;-81
2022/04/14 09:39:09;;;;;;;19.27;17.23;;;31.40;64.00;;;;;;5079967;28;20814;-81
2022/04/14 09:41:39;;;;;;;24.17;21.67;;;30.00;65.00;;;;;;5077988;28;20447;-80
2022/04/14 09:44:08;;;;;;;21.00;18.80;;;28.60;67.00;;;;;;5078444;28;20493;-80
2022/04/14 09:46:35;;;;;;;17.60;15.37;;;29.30;67.70;;;;;;5060423;28;20469;-81
2022/04/14 09:49:08;;;;;;;16.17;14.57;;;30.40;67.50;;;;;;5061292;28;20470;-81
2022/04/14 09:51:36;;;;;;;18.03;16.30;;;31.70;65.70;;;;;;5060299;28;20494;-81
2022/04/14 09:54:13;;;;;;;15.90;14.20;;;32.60;63.00;;;;;;5059897;28;20467;-81
2022/04/14 09:56:44;;;;;;;20.50;18.53;;;33.50;60.90;;;;;;5060937;28;20454;-81
2022/04/14 09:59:13;;;;;;;20.33;18.23;;;33.90;56.10;;;;;;5060389;28;20531;-80
2022/04/14 10:01:40;;;;;;;18.43;16.73;;;32.40;56.10;;;;;;5060498;28;20440;-82
2022/04/14 10:04:27;;;;;;;22.20;19.80;;;33.40;60.20;;;;;;5060299;28;20472;-80
2022/04/14 10:07:03;;;;;;;21.07;18.83;;;34.10;55.10;;;;;;5061517;28;20458;-82
2022/04/14 10:09:30;;;;;;;20.83;18.87;;;33.90;56.80;;;;;;5060762;28;20463;-82
2022/04/14 10:11:59;;;;;;;19.40;17.53;;;32.90;52.60;;;;;;5061344;28;20545;-81
2022/04/14 10:14:26;;;;;;;18.53;16.83;;;30.80;54.80;;;;;;5060664;28;20475;-82
2022/04/14 10:16:54;;;;;;;20.73;18.83;;;28.60;58.30;;;;;;5060652;28;20460;-81
2022/04/14 10:19:21;;;;;;;19.13;17.30;;;28.20;61.00;;;;;;5061145;28;20444;-82
2022/04/14 10:21:49;;;;;;;19.03;17.10;;;30.20;61.10;;;;;;5061090;28;20470;-82
2022/04/14 10:24:18;;;;;;;18.83;17.03;;;31.70;57.70;;;;;;5060197;28;20479;-82
2022/04/14 10:26:46;;;;;;;18.20;16.40;;;31.90;56.20;;;;;;5079953;28;20459;-82
2022/04/14 10:29:18;;;;;;;16.80;15.13;;;30.10;56.30;;;;;;5080592;28;20451;-80
2022/04/14 10:31:45;;;;;;;17.23;15.53;;;30.70;57.10;;;;;;5079891;28;20486;-80
2022/04/14 10:34:15;;;;;;;21.20;19.07;;;29.20;58.90;;;;;;5079422;28;20478;-80
2022/04/14 10:36:45;;;;;;;18.67;16.77;;;28.70;61.50;;;;;;5061526;28;20448;-81
2022/04/14 10:39:14;;;;;;;17.50;15.80;;;30.90;59.60;;;;;;5068062;28;20450;-82
2022/04/14 10:41:45;;;;;;;18.70;16.80;;;31.10;56.30;;;;;;5061194;28;20546;-82
2022/04/14 10:44:13;;;;;;;13.37;12.17;;;31.40;55.50;;;;;;5058963;28;20562;-82
2022/04/14 10:46:46;;;;;;;15.20;13.80;;;31.10;55.20;;;;;;5079712;28;20458;-82
2022/04/14 10:49:14;;;;;;;13.13;11.77;;;32.00;56.20;;;;;;5079928;28;20842;-81
2022/04/14 10:51:41;;;;;;;12.20;11.20;;;33.50;54.20;;;;;;5079897;28;20482;-82
2022/04/14 10:54:09;;;;;;;15.47;13.90;;;34.30;55.00;;;;;;5069630;28;20480;-81
2022/04/14 10:56:52;;;;;;;12.63;11.40;;;34.20;51.70;;;;;;5077795;28;20451;-81
2022/04/14 10:59:42;;;;;;;15.30;13.70;;;34.20;50.30;;;;;;5066075;28;20464;-81
2022/04/14 11:02:10;;;;;;;13.47;12.37;;;32.60;50.80;;;;;;5072981;28;20925;-80
2022/04/14 11:04:50;;;;;;;12.80;11.70;;;30.60;51.90;;;;;;5068347;28;20476;-81
2022/04/14 11:07:18;;;;;;;14.80;13.40;;;28.80;55.20;;;;;;5076104;28;20443;-81
2022/04/14 11:09:53;;;;;;;15.97;14.17;;;27.70;56.30;;;;;;5077674;28;20469;-81
2022/04/14 11:12:22;;;;;;;14.00;12.60;;;26.50;57.70;;;;;;5068745;28;20487;-80
2022/04/14 11:14:57;;;;;;;12.80;11.60;;;26.10;58.90;;;;;;5070229;28;20512;-81
2022/04/14 11:18:07;;;;;;;14.67;13.17;;;25.70;59.00;;;;;;5069212;28;20447;-81
2022/04/14 11:20:54;;;;;;;13.73;11.23;;;24.90;61.50;;;;;;5066382;28;20533;-79
2022/04/14 11:23:26;;;;;;;13.77;12.37;;;24.10;65.30;;;;;;5063802;28;20530;-79
2022/04/14 11:25:54;;;;;;;11.80;10.60;;;23.60;65.60;;;;;;5066000;28;20452;-79
2022/04/14 11:28:25;;;;;;;13.23;11.53;;;23.00;67.60;;;;;;5066715;28;20455;-79
2022/04/14 11:30:54;;;;;;;10.50;9.07;;;22.40;66.50;;;;;;5077190;28;20846;-79
2022/04/14 11:33:42;;;;;;;10.33;8.07;;;22.10;67.00;;;;;;5063651;28;20941;-79
2022/04/14 11:36:12;;;;;;;11.00;9.90;;;21.50;68.60;;;;;;5058318;28;20440;-79
2022/04/14 11:38:56;;;;;;;9.13;8.27;;;21.40;71.00;;;;;;5077276;28;20521;-79
2022/04/14 11:41:37;;;;;;;10.83;7.53;;;22.20;72.30;;;;;;5074666;28;20443;-79
2022/04/14 11:44:05;;;;;;;40.40;18.87;;;23.30;67.70;;;;;;5067501;28;20475;-79
2022/04/14 11:46:33;;;;;;;7.33;6.60;;;24.30;68.10;;;;;;5074338;28;20458;-80
2022/04/14 11:49:02;;;;;;;7.70;6.90;;;27.30;63.50;;;;;;5064342;28;20450;-80
2022/04/14 11:51:29;;;;;;;6.70;5.50;;;29.70;60.30;;;;;;5074109;28;20546;-81
2022/04/14 11:53:56;;;;;;;6.67;5.97;;;31.90;57.70;;;;;;5075808;28;20471;-80
2022/04/14 11:56:25;;;;;;;6.50;5.90;;;33.90;51.70;;;;;;5065214;28;20853;-80
2022/04/14 11:58:52;;;;;;;4.20;3.40;;;32.90;49.80;;;;;;5068966;28;20825;-80
2022/04/14 12:01:20;;;;;;;4.87;3.30;;;31.50;49.40;;;;;;5074956;28;21198;-80
2022/04/14 12:03:47;;;;;;;3.73;3.13;;;30.20;49.60;;;;;;5068621;28;20477;-80
2022/04/14 12:06:17;;;;;;;4.90;3.00;;;29.50;50.90;;;;;;5063707;28;20477;-79
2022/04/14 12:08:53;;;;;;;4.43;3.67;;;29.90;53.20;;;;;;5075922;28;20447;-79
2022/04/14 12:11:21;;;;;;;6.47;3.30;;;31.80;51.90;;;;;;5073083;28;20513;-80
2022/04/14 12:13:48;;;;;;;3.83;3.20;;;33.80;50.10;;;;;;5057175;28;20472;-79
2022/04/14 12:16:15;;;;;;;5.00;3.63;;;34.50;48.90;;;;;;5065687;28;20464;-82
2022/04/14 12:18:50;;;;;;;5.00;3.07;;;36.50;47.00;;;;;;5057464;28;20934;-80
2022/04/14 12:21:23;;;;;;;4.47;4.00;;;37.10;46.70;;;;;;5067064;28;20831;-80
2022/04/14 12:23:52;;;;;;;5.97;3.73;;;34.60;44.70;;;;;;5070845;28;20479;-80
2022/04/14 12:26:20;;;;;;;5.40;3.80;;;32.70;47.00;;;;;;5070243;28;20458;-81
2022/04/14 12:28:48;;;;;;;5.13;3.00;;;30.10;49.40;;;;;;5068815;28;20460;-80
2022/04/14 12:31:17;;;;;;;5.10;3.87;;;29.20;51.40;;;;;;5064031;28;20479;-79
2022/04/14 12:33:56;;;;;;;5.27;3.17;;;30.40;53.70;;;;;;5064866;28;20852;-80
2022/04/14 12:36:33;;;;;;;5.50;3.83;;;32.50;52.50;;;;;;5064847;28;20450;-82
2022/04/14 12:39:00;;;;;;;4.70;3.83;;;34.20;50.40;;;;;;5064724;28;20515;-80